createdAt,value
2018-11-13T00:01:50.689Z,60.23
2018-11-13T00:04:33.021Z,53.73
2018-11-13T00:07:12.867Z,58.07
2018-11-13T00:09:52.683Z,51.27
2018-11-13T00:12:34.200Z,49.37
2018-11-13T00:15:16.440Z,54.60
2018-11-13T00:17:55.782Z,54.70
2018-11-13T00:20:35.907Z,51.47
2018-11-13T00:23:14.548Z,47.63
2018-11-13T00:25:55.369Z,45.33
2018-11-13T00:28:34.486Z,54.93
2018-11-13T00:31:15.605Z,51.83
2018-11-13T00:33:58.071Z,51.20
2018-11-13T00:36:39.164Z,48.00
2018-11-13T00:39:21.245Z,47.63
2018-11-13T00:42:01.482Z,46.33
2018-11-13T00:44:43.386Z,48.57
2018-11-13T00:47:24.246Z,50.63
2018-11-13T00:50:07.063Z,54.90
2018-11-13T00:52:49.759Z,49.03
2018-11-13T00:55:29.686Z,56.50
2018-11-13T00:58:10.567Z,47.40
2018-11-13T01:00:50.171Z,56.37
2018-11-13T01:03:29.602Z,63.03
2018-11-13T01:06:13.322Z,69.93
2018-11-13T01:08:54.350Z,78.37
2018-11-13T01:11:36.646Z,78.03
2018-11-13T01:14:19.365Z,47.23
2018-11-13T01:17:00.145Z,67.10
2018-11-13T01:19:42.202Z,62.73
2018-11-13T01:22:22.806Z,82.87
2018-11-13T01:25:03.921Z,79.10
2018-11-13T01:27:45.085Z,58.23
2018-11-13T01:30:26.845Z,80.23
2018-11-13T01:33:06.444Z,49.70
2018-11-13T01:35:47.483Z,56.27
2018-11-13T01:38:27.425Z,55.97
2018-11-13T01:41:05.367Z,51.30
2018-11-13T01:43:44.724Z,48.83
2018-11-13T01:46:27.445Z,49.67
2018-11-13T01:49:10.024Z,48.83
2018-11-13T01:51:52.666Z,47.93
2018-11-13T01:54:31.693Z,46.87
2018-11-13T01:57:11.242Z,46.53
2018-11-13T01:59:51.484Z,47.60
2018-11-13T02:02:29.961Z,51.73
2018-11-13T02:05:10.665Z,46.13
2018-11-13T02:07:49.203Z,50.80
2018-11-13T02:10:27.902Z,51.87
2018-11-13T02:13:10.203Z,51.20
2018-11-13T02:15:49.431Z,50.47
2018-11-13T02:18:28.219Z,49.50
2018-11-13T02:21:10.405Z,49.33
2018-11-13T02:23:50.421Z,48.93
2018-11-13T02:26:29.767Z,47.83
2018-11-13T02:29:09.488Z,51.53
2018-11-13T02:31:50.826Z,51.37
2018-11-13T02:34:32.720Z,56.57
2018-11-13T02:37:12.382Z,53.73
2018-11-13T02:39:52.208Z,52.57
2018-11-13T02:42:32.420Z,52.70
2018-11-13T02:45:14.302Z,51.90
2018-11-13T02:47:54.004Z,54.03
2018-11-13T02:50:36.003Z,55.07
2018-11-13T02:53:16.942Z,53.57
2018-11-13T02:55:55.885Z,69.27
2018-11-13T02:58:34.620Z,59.23
2018-11-13T03:01:15.705Z,52.10
2018-11-13T03:03:55.502Z,52.23
2018-11-13T03:06:34.545Z,53.57
2018-11-13T03:09:14.180Z,49.10
2018-11-13T03:11:52.877Z,58.07
2018-11-13T03:14:34.305Z,55.37
2018-11-13T03:17:14.127Z,48.83
2018-11-13T03:19:52.742Z,55.73
2018-11-13T03:22:34.782Z,40.23
2018-11-13T03:25:17.221Z,87.03
2018-11-13T03:27:57.982Z,59.03
2018-11-13T03:30:40.141Z,43.53
2018-11-13T03:33:20.912Z,62.20
2018-11-13T03:36:00.308Z,82.97
2018-11-13T03:38:41.246Z,52.70
2018-11-13T03:41:20.358Z,63.47
2018-11-13T03:43:59.159Z,78.23
2018-11-13T03:46:39.081Z,112.27
2018-11-13T03:49:19.062Z,69.13
2018-11-13T03:52:01.425Z,69.60
2018-11-13T03:54:40.577Z,76.23
2018-11-13T03:57:20.006Z,63.27
2018-11-13T04:00:01.005Z,114.33
2018-11-13T04:02:41.720Z,85.17
2018-11-13T04:05:22.365Z,73.57
2018-11-13T04:08:01.968Z,59.30
2018-11-13T04:10:41.345Z,72.00
2018-11-13T04:13:21.983Z,47.87
2018-11-13T04:16:03.146Z,48.53
2018-11-13T04:18:41.849Z,48.80
2018-11-13T04:21:23.803Z,52.57
2018-11-13T04:24:04.502Z,48.13
2018-11-13T04:26:44.060Z,50.40
2018-11-13T04:29:23.151Z,50.67
2018-11-13T04:32:03.645Z,56.77
2018-11-13T04:34:42.259Z,52.87
2018-11-13T04:37:23.183Z,46.83
2018-11-13T04:40:02.846Z,50.37
2018-11-13T04:42:45.125Z,51.27
2018-11-13T04:45:25.364Z,37.97
2018-11-13T04:48:05.163Z,43.20
2018-11-13T04:50:45.044Z,43.60
2018-11-13T04:53:23.746Z,46.33
2018-11-13T04:56:01.424Z,50.97
2018-11-13T04:58:41.182Z,47.67
2018-11-13T05:01:20.370Z,43.47
2018-11-13T05:04:01.303Z,56.97
2018-11-13T05:06:43.789Z,54.33
2018-11-13T05:09:27.190Z,46.17
2018-11-13T05:12:07.046Z,51.73
2018-11-13T05:14:50.082Z,49.90
2018-11-13T05:17:31.751Z,48.73
2018-11-13T05:20:11.765Z,46.13
2018-11-13T05:22:53.748Z,41.23
2018-11-13T05:25:31.283Z,41.73
2018-11-13T05:28:11.204Z,41.30
2018-11-13T05:30:54.185Z,45.07
2018-11-13T05:33:36.845Z,51.43
2018-11-13T05:36:17.243Z,45.00
2018-11-13T05:38:59.223Z,52.87
2018-11-13T05:41:38.843Z,48.40
2018-11-13T05:44:38.406Z,48.40
2018-11-13T05:47:20.794Z,46.50
2018-11-13T05:50:01.430Z,54.23
2018-11-13T05:52:44.006Z,49.93
2018-11-13T05:55:27.262Z,49.73
2018-11-13T05:58:09.685Z,55.80
2018-11-13T06:00:50.686Z,51.80
2018-11-13T06:03:32.272Z,48.67
2018-11-13T06:06:11.468Z,54.80
2018-11-13T06:08:50.884Z,66.80
2018-11-13T06:11:30.204Z,58.00
2018-11-13T06:14:09.560Z,62.50
2018-11-13T06:16:50.504Z,62.20
2018-11-13T06:19:28.683Z,57.87
2018-11-13T06:22:06.924Z,54.07
2018-11-13T06:24:51.148Z,50.27
2018-11-13T06:27:31.948Z,50.97
2018-11-13T06:30:25.567Z,53.17
2018-11-13T06:33:06.782Z,49.43
2018-11-13T06:35:49.406Z,53.97
2018-11-13T06:38:31.712Z,54.73
2018-11-13T06:41:13.399Z,58.30
2018-11-13T06:43:52.986Z,56.57
2018-11-13T06:46:31.164Z,61.03
2018-11-13T06:49:10.440Z,64.17
2018-11-13T06:51:51.663Z,60.57
2018-11-13T06:54:42.205Z,57.57
2018-11-13T06:57:21.952Z,67.53
2018-11-13T07:00:02.628Z,61.03
2018-11-13T07:02:43.306Z,76.40
2018-11-13T07:05:22.727Z,78.13
2018-11-13T07:10:59.116Z,78.00
2018-11-13T07:13:36.447Z,81.77
2018-11-13T07:16:18.006Z,81.10
2018-11-13T07:19:01.024Z,96.23
2018-11-13T07:21:41.345Z,97.17
2018-11-13T07:24:21.423Z,101.80
2018-11-13T07:27:00.363Z,47.60
2018-11-13T07:29:42.566Z,109.90
2018-11-13T07:32:27.227Z,126.17
2018-11-13T07:35:08.583Z,136.27
2018-11-13T07:37:54.705Z,118.73
2018-11-13T07:40:35.719Z,101.00
2018-11-13T07:43:16.932Z,110.87
2018-11-13T07:45:55.487Z,108.37
2018-11-13T07:48:36.702Z,106.17
2018-11-13T07:51:17.334Z,115.93
2018-11-13T07:54:00.837Z,114.60
2018-11-13T07:56:42.122Z,175.27
2018-11-13T07:59:23.599Z,162.77
2018-11-13T08:02:03.542Z,201.97
2018-11-13T08:04:43.646Z,190.97
2018-11-13T08:07:24.730Z,166.13
2018-11-13T08:10:04.672Z,274.37
2018-11-13T08:12:44.115Z,301.53
2018-11-13T08:15:21.743Z,303.37
2018-11-13T08:18:03.386Z,317.73
2018-11-13T08:20:43.603Z,339.80
2018-11-13T08:23:24.428Z,317.57
2018-11-13T08:26:05.184Z,310.40
2018-11-13T08:28:44.495Z,288.40
2018-11-13T08:31:24.777Z,242.70
2018-11-13T08:34:04.004Z,195.27
2018-11-13T08:36:45.583Z,147.00
2018-11-13T08:39:24.378Z,125.43
2018-11-13T08:42:03.306Z,111.30
2018-11-13T08:44:46.162Z,106.33
2018-11-13T08:47:27.225Z,100.13
2018-11-13T08:50:10.802Z,94.47
2018-11-13T08:52:53.101Z,93.17
2018-11-13T08:55:35.386Z,62.83
2018-11-13T08:58:14.830Z,93.67
2018-11-13T09:00:52.726Z,72.40
2018-11-13T09:03:35.322Z,103.30
2018-11-13T09:06:15.385Z,82.40
2018-11-13T09:08:55.363Z,89.50
2018-11-13T09:11:34.536Z,86.63
2018-11-13T09:14:17.459Z,86.30
2018-11-13T09:17:00.290Z,93.50
2018-11-13T09:19:40.510Z,101.37
2018-11-13T09:22:19.426Z,100.50
2018-11-13T09:24:58.965Z,94.50
2018-11-13T09:27:37.581Z,80.23
2018-11-13T09:30:22.880Z,93.17
2018-11-13T09:33:03.318Z,93.37
2018-11-13T09:35:43.568Z,89.27
2018-11-13T09:38:24.303Z,87.33
2018-11-13T09:41:05.648Z,86.03
2018-11-13T09:43:45.143Z,80.63
2018-11-13T09:46:26.376Z,67.53
2018-11-13T09:49:14.282Z,69.03
2018-11-13T09:51:53.087Z,73.03
2018-11-13T09:54:34.944Z,62.53
2018-11-13T09:57:14.421Z,64.03
2018-11-13T09:59:51.436Z,79.40
2018-11-13T10:02:29.642Z,100.70
2018-11-13T10:05:08.346Z,124.37
2018-11-13T10:07:46.939Z,91.83
2018-11-13T10:10:25.233Z,81.30
2018-11-13T10:13:03.829Z,75.33
2018-11-13T10:15:42.497Z,74.23
2018-11-13T10:18:22.503Z,84.97
2018-11-13T10:21:01.085Z,86.90
2018-11-13T10:23:38.625Z,59.47
2018-11-13T10:26:17.665Z,82.93
2018-11-13T10:28:57.284Z,81.33
2018-11-13T10:31:35.647Z,87.20
2018-11-13T10:34:14.210Z,78.97
2018-11-13T10:36:52.761Z,70.70
2018-11-13T10:39:30.264Z,74.00
2018-11-13T10:42:08.860Z,66.63
2018-11-13T10:44:47.840Z,87.47
2018-11-13T10:47:27.098Z,75.20
2018-11-13T10:50:05.209Z,76.87
2018-11-13T10:52:45.846Z,64.37
2018-11-13T10:55:23.603Z,65.97
2018-11-13T10:58:16.364Z,72.13
2018-11-13T11:01:01.583Z,58.07
2018-11-13T11:03:45.322Z,91.50
2018-11-13T11:06:25.024Z,82.00
2018-11-13T11:09:02.886Z,86.32
2018-11-13T11:11:39.171Z,359.45
2018-11-13T11:14:19.201Z,191.63
2018-11-13T11:16:58.584Z,133.27
2018-11-13T11:19:37.289Z,68.43
2018-11-13T11:22:15.667Z,172.40
2018-11-13T11:24:55.782Z,144.63
2018-11-13T11:27:35.146Z,605.73
2018-11-13T11:30:16.743Z,1145.90
2018-11-13T11:32:54.720Z,1115.88
2018-11-13T11:35:33.679Z,1146.63
2018-11-13T11:38:13.458Z,166.00
2018-11-13T11:40:53.568Z,46.90
2018-11-13T11:43:32.225Z,97.70
2018-11-13T11:46:10.186Z,58.27
2018-11-13T11:48:49.184Z,39.17
2018-11-13T11:51:30.528Z,50.23
2018-11-13T11:54:08.718Z,82.33
2018-11-13T11:56:48.139Z,75.77
2018-11-13T11:59:28.419Z,70.43
2018-11-13T12:02:08.616Z,53.00
2018-11-13T12:04:54.763Z,60.80
2018-11-13T12:07:35.090Z,58.23
2018-11-13T12:10:29.472Z,53.60
2018-11-13T12:13:13.790Z,45.57
2018-11-13T12:15:56.124Z,57.90
2018-11-13T12:18:33.584Z,70.87
2018-11-13T12:21:11.346Z,300.40
2018-11-13T12:23:51.186Z,270.47
2018-11-13T12:26:29.782Z,212.53
2018-11-13T12:29:11.160Z,310.67
2018-11-13T12:31:53.447Z,387.00
2018-11-13T12:34:37.209Z,404.57
2018-11-13T12:37:15.720Z,473.87
2018-11-13T12:39:58.260Z,482.53
2018-11-13T12:42:37.108Z,344.93
2018-11-13T12:45:19.903Z,262.47
2018-11-13T12:47:59.901Z,271.13
2018-11-13T12:50:41.364Z,245.03
2018-11-13T12:53:20.603Z,213.17
2018-11-13T12:56:00.567Z,58.97
2018-11-13T12:58:39.348Z,45.10
2018-11-13T13:01:18.557Z,47.13
2018-11-13T13:03:57.724Z,45.67
2018-11-13T13:06:38.450Z,42.10
2018-11-13T13:09:18.105Z,48.40
2018-11-13T13:11:59.926Z,47.27
2018-11-13T13:14:38.207Z,120.83
2018-11-13T13:17:22.082Z,175.10
2018-11-13T13:20:04.024Z,342.47
2018-11-13T13:22:42.947Z,485.47
2018-11-13T13:25:24.286Z,492.07
2018-11-13T13:28:02.551Z,484.23
2018-11-13T13:30:53.380Z,235.60
2018-11-13T13:33:32.263Z,107.20
2018-11-13T13:36:10.845Z,240.93
2018-11-13T13:38:51.050Z,363.73
2018-11-13T13:41:30.804Z,397.97
2018-11-13T13:44:09.506Z,245.52
2018-11-13T13:46:47.547Z,266.90
2018-11-13T13:52:37.763Z,52.67
2018-11-13T13:55:16.423Z,50.07
2018-11-13T13:57:56.511Z,360.95
2018-11-13T14:00:47.023Z,639.40
2018-11-13T14:03:26.204Z,482.57
2018-11-13T14:09:02.969Z,57.67
2018-11-13T14:11:40.543Z,42.80
2018-11-13T14:14:21.288Z,168.67
2018-11-13T14:16:59.901Z,326.77
2018-11-13T14:19:40.489Z,89.22
2018-11-13T14:22:21.525Z,61.63
2018-11-13T14:25:04.458Z,309.37
2018-11-13T14:27:44.932Z,472.87
2018-11-13T14:30:29.117Z,242.13
2018-11-13T14:33:10.460Z,56.13
2018-11-13T14:35:52.724Z,55.37
2018-11-13T14:38:33.165Z,62.20
2018-11-13T14:41:10.982Z,41.33
2018-11-13T14:43:52.004Z,37.00
2018-11-13T14:46:34.745Z,37.07
2018-11-13T14:49:13.764Z,35.57
2018-11-13T14:51:54.680Z,35.90
2018-11-13T14:54:39.365Z,34.97
2018-11-13T14:57:23.844Z,29.77
2018-11-13T15:00:02.904Z,31.23
2018-11-13T15:02:41.706Z,29.27
2018-11-13T15:05:22.243Z,29.57
2018-11-13T15:08:04.506Z,30.20
2018-11-13T15:10:49.881Z,32.40
2018-11-13T15:13:30.229Z,34.73
2018-11-13T15:16:08.363Z,34.70
2018-11-13T15:18:45.619Z,55.57
2018-11-13T15:21:24.340Z,33.20
2018-11-13T15:24:02.780Z,35.40
2018-11-13T15:26:41.965Z,49.60
2018-11-13T15:29:22.246Z,70.27
2018-11-13T15:32:01.124Z,81.97
2018-11-13T15:34:38.720Z,80.17
2018-11-13T15:37:16.559Z,83.83
2018-11-13T15:39:55.363Z,50.30
2018-11-13T15:42:35.781Z,43.83
2018-11-13T15:45:14.670Z,38.47
2018-11-13T15:47:53.868Z,77.27
2018-11-13T15:50:33.378Z,238.87
2018-11-13T15:53:14.121Z,379.00
2018-11-13T15:55:55.024Z,529.83
2018-11-13T15:58:36.885Z,573.53
2018-11-13T16:01:20.326Z,624.77
2018-11-13T16:04:01.243Z,669.20
2018-11-13T16:06:39.839Z,689.60
2018-11-13T16:09:19.740Z,713.20
2018-11-13T16:12:01.641Z,718.50
2018-11-13T16:14:41.211Z,692.93
2018-11-13T16:17:18.897Z,657.37
2018-11-13T16:19:58.806Z,544.30
2018-11-13T16:22:40.864Z,404.83
2018-11-13T16:25:19.927Z,288.10
2018-11-13T16:27:59.220Z,169.33
2018-11-13T16:30:42.918Z,108.53
2018-11-13T16:33:22.789Z,77.67
2018-11-13T16:36:00.626Z,71.13
2018-11-13T16:38:41.594Z,70.37
2018-11-13T16:41:18.765Z,75.47
2018-11-13T16:43:56.327Z,73.70
2018-11-13T16:46:36.846Z,68.60
2018-11-13T16:49:16.385Z,78.60
2018-11-13T16:51:56.361Z,82.50
2018-11-13T16:54:38.507Z,81.43
2018-11-13T16:57:19.285Z,86.37
2018-11-13T17:00:02.715Z,87.47
2018-11-13T17:02:49.674Z,87.60
2018-11-13T17:05:28.011Z,77.43
2018-11-13T17:08:13.221Z,72.27
2018-11-13T17:10:56.661Z,60.60
2018-11-13T17:13:40.222Z,61.80
2018-11-13T17:16:19.660Z,63.97
2018-11-13T17:18:57.939Z,73.57
2018-11-13T17:21:42.323Z,73.87
2018-11-13T17:24:24.320Z,84.70
2018-11-13T17:27:11.330Z,81.87
2018-11-13T17:29:49.661Z,76.17
2018-11-13T17:32:40.442Z,74.37
2018-11-13T17:35:25.670Z,76.13
2018-11-13T17:38:04.454Z,79.80
2018-11-13T17:40:42.424Z,85.37
2018-11-13T17:43:23.264Z,81.90
2018-11-13T17:46:03.142Z,82.80
2018-11-13T17:48:43.143Z,75.27
2018-11-13T17:51:25.524Z,69.00
2018-11-13T17:54:09.046Z,65.30
2018-11-13T17:56:49.305Z,63.13
2018-11-13T17:59:29.057Z,63.20
2018-11-13T18:02:21.721Z,66.43
2018-11-13T18:05:00.361Z,70.53
2018-11-13T18:07:39.887Z,59.33
2018-11-13T18:10:18.229Z,56.53
2018-11-13T18:12:56.824Z,72.90
2018-11-13T18:15:41.624Z,91.57
2018-11-13T18:18:18.776Z,77.97
2018-11-13T18:20:56.366Z,68.67
2018-11-13T18:23:38.807Z,66.73
2018-11-13T18:26:22.848Z,71.00
2018-11-13T18:29:07.966Z,69.03
2018-11-13T18:31:50.544Z,62.70
2018-11-13T18:34:31.802Z,61.43
2018-11-13T18:37:12.184Z,68.63
2018-11-13T18:39:52.725Z,82.13
2018-11-13T18:42:33.266Z,95.73
2018-11-13T18:45:18.124Z,123.93
2018-11-13T18:47:58.022Z,127.73
2018-11-13T18:50:40.803Z,118.43
2018-11-13T18:53:19.405Z,97.47
2018-11-13T18:55:58.181Z,93.93
2018-11-13T18:58:38.294Z,72.90
2018-11-13T19:01:20.641Z,72.80
2018-11-13T19:04:02.584Z,69.20
2018-11-13T19:06:41.446Z,63.60
2018-11-13T19:09:18.899Z,84.80
2018-11-13T19:11:56.794Z,82.73
2018-11-13T19:14:35.026Z,90.37
2018-11-13T19:17:15.607Z,66.67
2018-11-13T19:19:57.262Z,68.67
2018-11-13T19:22:35.852Z,65.33
2018-11-13T19:25:17.643Z,48.70
2018-11-13T19:28:00.424Z,44.53
2018-11-13T19:30:38.524Z,50.70
2018-11-13T19:33:18.902Z,70.07
2018-11-13T19:36:00.178Z,67.43
2018-11-13T19:38:38.531Z,76.40
2018-11-13T19:41:20.813Z,68.43
2018-11-13T19:44:03.740Z,61.83
2018-11-13T19:46:43.781Z,60.57
2018-11-13T19:49:23.559Z,94.90
2018-11-13T19:52:02.059Z,88.53
2018-11-13T19:54:40.350Z,90.00
2018-11-13T19:57:25.254Z,79.80
2018-11-13T20:00:04.728Z,79.23
2018-11-13T20:02:44.662Z,77.43
2018-11-13T20:05:25.662Z,87.73
2018-11-13T20:08:04.844Z,89.53
2018-11-13T20:10:43.304Z,90.57
2018-11-13T20:13:21.532Z,99.13
2018-11-13T20:16:01.721Z,75.77
2018-11-13T20:18:41.239Z,54.23
2018-11-13T20:21:19.783Z,49.47
2018-11-13T20:23:58.201Z,55.17
2018-11-13T20:26:36.961Z,59.17
2018-11-13T20:29:17.103Z,63.67
2018-11-13T20:31:55.505Z,71.20
2018-11-13T20:34:35.024Z,72.87
2018-11-13T20:37:15.834Z,69.33
2018-11-13T20:39:57.104Z,69.60
2018-11-13T20:42:35.328Z,68.93
2018-11-13T20:45:15.407Z,76.97
2018-11-13T20:47:56.424Z,71.63
2018-11-13T20:50:36.837Z,65.90
2018-11-13T20:53:21.009Z,44.53
2018-11-13T20:56:00.285Z,45.87
2018-11-13T20:58:41.521Z,48.13
2018-11-13T21:01:22.423Z,48.33
2018-11-13T21:04:07.127Z,49.77
2018-11-13T21:06:47.344Z,50.17
2018-11-13T21:09:29.212Z,51.47
2018-11-13T21:12:07.223Z,56.43
2018-11-13T21:14:49.144Z,50.47
2018-11-13T21:17:30.076Z,51.20
2018-11-13T21:20:07.218Z,49.90
2018-11-13T21:22:48.382Z,53.40
2018-11-13T21:25:27.077Z,50.23
2018-11-13T21:28:10.385Z,45.40
2018-11-13T21:30:52.008Z,45.20
2018-11-13T21:33:32.304Z,45.67
2018-11-13T21:36:09.885Z,45.93
2018-11-13T21:38:49.265Z,39.43
2018-11-13T21:41:29.121Z,39.70
2018-11-13T21:44:10.703Z,45.27
2018-11-13T21:46:50.063Z,54.73
2018-11-13T21:49:30.198Z,70.43
2018-11-13T21:52:08.148Z,186.60
2018-11-13T21:54:46.005Z,55.57
2018-11-13T21:57:24.318Z,98.23
2018-11-13T22:00:04.743Z,42.10
2018-11-13T22:02:46.145Z,44.00
2018-11-13T22:05:26.285Z,46.53
2018-11-13T22:08:08.277Z,46.50
2018-11-13T22:10:46.662Z,45.87
2018-11-13T22:13:28.583Z,47.47
2018-11-13T22:16:08.122Z,44.43
2018-11-13T22:18:49.101Z,41.17
2018-11-13T22:21:30.203Z,40.47
2018-11-13T22:24:11.523Z,48.20
2018-11-13T22:26:52.029Z,49.60
2018-11-13T22:29:34.266Z,89.73
2018-11-13T22:32:15.563Z,59.00
2018-11-13T22:34:57.488Z,47.00
2018-11-13T22:37:39.348Z,66.00
2018-11-13T22:40:23.825Z,40.53
2018-11-13T22:43:02.687Z,45.10
2018-11-13T22:45:43.867Z,50.13
2018-11-13T22:48:25.354Z,52.20
2018-11-13T22:51:02.601Z,45.70
2018-11-13T22:53:43.725Z,51.03
2018-11-13T22:56:25.398Z,56.53
2018-11-13T22:59:07.281Z,67.83
2018-11-13T23:01:49.068Z,66.83
2018-11-13T23:04:31.121Z,63.27
2018-11-13T23:07:12.063Z,147.13
2018-11-13T23:09:55.004Z,106.20
2018-11-13T23:12:35.424Z,47.30
2018-11-13T23:15:18.990Z,45.80
2018-11-13T23:17:58.941Z,45.50
2018-11-13T23:20:40.162Z,47.27
2018-11-13T23:23:21.523Z,61.87
2018-11-13T23:26:01.787Z,70.33
2018-11-13T23:28:43.438Z,72.07
2018-11-13T23:31:24.945Z,82.33
2018-11-13T23:34:01.861Z,56.30
2018-11-13T23:36:42.028Z,58.67
2018-11-13T23:39:20.838Z,82.53
2018-11-13T23:42:00.821Z,57.73
2018-11-13T23:44:45.526Z,60.77
2018-11-13T23:47:26.228Z,59.80
2018-11-13T23:50:08.152Z,62.47
2018-11-13T23:52:51.121Z,60.50
2018-11-13T23:55:32.482Z,55.47
2018-11-13T23:58:13.525Z,53.63
